sensor_id;sensor_type;location;lat;lon;timestamp;temperature;humidity
56162;DHT22;42045;52.986;6.014;2023-03-02T00:01:06;3.00;99.90
56162;DHT22;42045;52.986;6.014;2023-03-02T00:03:35;3.00;99.90
56162;DHT22;42045;52.986;6.014;2023-03-02T00:06:01;3.10;99.90
56162;DHT22;42045;52.986;6.014;2023-03-02T00:08:27;3.00;99.90
56162;DHT22;42045;52.986;6.014;2023-03-02T00:10:55;3.00;99.90
56162;DHT22;42045;52.986;6.014;2023-03-02T00:13:22;3.00;99.90
56162;DHT22;42045;52.986;6.014;2023-03-02T00:15:48;3.00;99.90
56162;DHT22;42045;52.986;6.014;2023-03-02T00:18:14;3.00;99.90
56162;DHT22;42045;52.986;6.014;2023-03-02T00:20:39;3.00;99.90
56162;DHT22;42045;52.986;6.014;2023-03-02T00:23:05;3.00;99.90
56162;DHT22;42045;52.986;6.014;2023-03-02T00:25:31;3.00;99.90
56162;DHT22;42045;52.986;6.014;2023-03-02T00:27:56;3.00;99.90
56162;DHT22;42045;52.986;6.014;2023-03-02T00:30:22;2.90;99.90
56162;DHT22;42045;52.986;6.014;2023-03-02T00:32:48;2.90;99.90
56162;DHT22;42045;52.986;6.014;2023-03-02T00:35:14;2.90;99.90
56162;DHT22;42045;52.986;6.014;2023-03-02T00:37:39;2.90;99.90
56162;DHT22;42045;52.986;6.014;2023-03-02T00:40:07;2.90;99.90
56162;DHT22;42045;52.986;6.014;2023-03-02T00:42:35;2.80;99.90
56162;DHT22;42045;52.986;6.014;2023-03-02T00:45:03;2.80;99.90
56162;DHT22;42045;52.986;6.014;2023-03-02T00:47:29;2.80;99.90
56162;DHT22;42045;52.986;6.014;2023-03-02T00:49:57;2.80;99.90
56162;DHT22;42045;52.986;6.014;2023-03-02T00:52:22;2.80;99.90
56162;DHT22;42045;52.986;6.014;2023-03-02T00:54:48;2.70;99.90
56162;DHT22;42045;52.986;6.014;2023-03-02T00:57:14;2.70;99.90
56162;DHT22;42045;52.986;6.014;2023-03-02T00:59:39;2.70;99.90
56162;DHT22;42045;52.986;6.014;2023-03-02T01:02:05;2.70;99.90
56162;DHT22;42045;52.986;6.014;2023-03-02T01:04:36;2.70;99.90
56162;DHT22;42045;52.986;6.014;2023-03-02T01:07:07;2.70;99.90
56162;DHT22;42045;52.986;6.014;2023-03-02T01:09:35;2.70;99.90
56162;DHT22;42045;52.986;6.014;2023-03-02T01:12:01;2.60;99.90
56162;DHT22;42045;52.986;6.014;2023-03-02T01:14:27;2.70;99.90
56162;DHT22;42045;52.986;6.014;2023-03-02T01:16:53;2.60;99.90
56162;DHT22;42045;52.986;6.014;2023-03-02T01:19:19;2.60;99.90
56162;DHT22;42045;52.986;6.014;2023-03-02T01:21:45;2.60;99.90
56162;DHT22;42045;52.986;6.014;2023-03-02T01:24:11;2.70;99.90
56162;DHT22;42045;52.986;6.014;2023-03-02T01:26:37;2.70;99.90
56162;DHT22;42045;52.986;6.014;2023-03-02T01:29:03;2.70;99.90
56162;DHT22;42045;52.986;6.014;2023-03-02T01:31:29;2.70;99.90
56162;DHT22;42045;52.986;6.014;2023-03-02T01:33:55;2.60;99.90
56162;DHT22;42045;52.986;6.014;2023-03-02T01:36:22;2.60;99.90
56162;DHT22;42045;52.986;6.014;2023-03-02T01:38:48;2.50;99.90
56162;DHT22;42045;52.986;6.014;2023-03-02T01:41:14;2.50;99.90
56162;DHT22;42045;52.986;6.014;2023-03-02T01:43:40;2.50;99.90
56162;DHT22;42045;52.986;6.014;2023-03-02T01:46:13;2.50;99.90
56162;DHT22;42045;52.986;6.014;2023-03-02T01:51:15;2.40;99.90
56162;DHT22;42045;52.986;6.014;2023-03-02T01:53:43;2.30;99.90
56162;DHT22;42045;52.986;6.014;2023-03-02T01:56:17;2.30;99.90
56162;DHT22;42045;52.986;6.014;2023-03-02T01:58:45;2.30;99.90
56162;DHT22;42045;52.986;6.014;2023-03-02T02:01:11;2.30;99.90
56162;DHT22;42045;52.986;6.014;2023-03-02T02:03:44;2.30;99.90
56162;DHT22;42045;52.986;6.014;2023-03-02T02:06:22;2.20;99.90
56162;DHT22;42045;52.986;6.014;2023-03-02T02:08:49;2.30;99.90
56162;DHT22;42045;52.986;6.014;2023-03-02T02:11:15;2.10;99.90
56162;DHT22;42045;52.986;6.014;2023-03-02T02:13:41;2.10;99.90
56162;DHT22;42045;52.986;6.014;2023-03-02T02:16:08;2.10;99.90
56162;DHT22;42045;52.986;6.014;2023-03-02T02:18:37;2.10;99.90
56162;DHT22;42045;52.986;6.014;2023-03-02T02:21:04;2.20;99.90
56162;DHT22;42045;52.986;6.014;2023-03-02T02:23:47;2.10;99.90
56162;DHT22;42045;52.986;6.014;2023-03-02T02:29:11;2.10;99.90
56162;DHT22;42045;52.986;6.014;2023-03-02T02:31:59;2.20;99.90
56162;DHT22;42045;52.986;6.014;2023-03-02T02:34:43;2.20;99.90
56162;DHT22;42045;52.986;6.014;2023-03-02T02:37:28;2.20;99.90
56162;DHT22;42045;52.986;6.014;2023-03-02T02:39:55;2.20;99.90
56162;DHT22;42045;52.986;6.014;2023-03-02T02:42:31;2.20;99.90
56162;DHT22;42045;52.986;6.014;2023-03-02T02:45:01;2.20;99.90
56162;DHT22;42045;52.986;6.014;2023-03-02T02:47:28;2.20;99.90
56162;DHT22;42045;52.986;6.014;2023-03-02T02:49:55;2.20;99.90
56162;DHT22;42045;52.986;6.014;2023-03-02T02:52:23;2.20;99.90
56162;DHT22;42045;52.986;6.014;2023-03-02T02:54:52;2.20;99.90
56162;DHT22;42045;52.986;6.014;2023-03-02T02:57:19;2.10;99.90
56162;DHT22;42045;52.986;6.014;2023-03-02T02:59:48;2.10;99.90
56162;DHT22;42045;52.986;6.014;2023-03-02T03:02:24;2.10;99.90
56162;DHT22;42045;52.986;6.014;2023-03-02T03:04:50;2.20;99.90
56162;DHT22;42045;52.986;6.014;2023-03-02T03:07:21;2.10;99.90
56162;DHT22;42045;52.986;6.014;2023-03-02T03:09:52;2.10;99.90
56162;DHT22;42045;52.986;6.014;2023-03-02T03:12:21;2.10;99.90
56162;DHT22;42045;52.986;6.014;2023-03-02T03:14:49;2.00;99.90
56162;DHT22;42045;52.986;6.014;2023-03-02T03:17:15;2.00;99.90
56162;DHT22;42045;52.986;6.014;2023-03-02T03:19:43;2.10;99.90
56162;DHT22;42045;52.986;6.014;2023-03-02T03:22:11;2.10;99.90
56162;DHT22;42045;52.986;6.014;2023-03-02T03:24:38;2.00;99.90
56162;DHT22;42045;52.986;6.014;2023-03-02T03:27:05;2.00;99.90
56162;DHT22;42045;52.986;6.014;2023-03-02T03:29:33;2.00;99.90
56162;DHT22;42045;52.986;6.014;2023-03-02T03:32:00;2.00;99.90
56162;DHT22;42045;52.986;6.014;2023-03-02T03:34:27;2.00;99.90
56162;DHT22;42045;52.986;6.014;2023-03-02T03:36:53;2.00;99.90
56162;DHT22;42045;52.986;6.014;2023-03-02T03:39:19;2.00;99.90
56162;DHT22;42045;52.986;6.014;2023-03-02T03:41:45;2.00;99.90
56162;DHT22;42045;52.986;6.014;2023-03-02T03:44:11;1.90;99.90
56162;DHT22;42045;52.986;6.014;2023-03-02T03:46:37;1.90;99.90
56162;DHT22;42045;52.986;6.014;2023-03-02T03:49:03;2.00;99.90
56162;DHT22;42045;52.986;6.014;2023-03-02T03:51:29;2.00;99.90
56162;DHT22;42045;52.986;6.014;2023-03-02T03:54:00;1.90;99.90
56162;DHT22;42045;52.986;6.014;2023-03-02T03:56:34;2.00;99.90
56162;DHT22;42045;52.986;6.014;2023-03-02T03:59:02;2.00;99.90
56162;DHT22;42045;52.986;6.014;2023-03-02T04:01:40;1.90;99.90
56162;DHT22;42045;52.986;6.014;2023-03-02T04:04:09;1.90;99.90
56162;DHT22;42045;52.986;6.014;2023-03-02T04:06:36;1.90;99.90
56162;DHT22;42045;52.986;6.014;2023-03-02T04:09:03;1.90;99.90
56162;DHT22;42045;52.986;6.014;2023-03-02T04:11:40;1.80;99.90
56162;DHT22;42045;52.986;6.014;2023-03-02T04:14:07;1.90;99.90
56162;DHT22;42045;52.986;6.014;2023-03-02T04:16:34;1.90;99.90
56162;DHT22;42045;52.986;6.014;2023-03-02T04:19:00;1.90;99.90
56162;DHT22;42045;52.986;6.014;2023-03-02T04:21:26;1.90;99.90
56162;DHT22;42045;52.986;6.014;2023-03-02T04:23:52;1.80;99.90
56162;DHT22;42045;52.986;6.014;2023-03-02T04:26:18;1.80;99.90
56162;DHT22;42045;52.986;6.014;2023-03-02T04:28:43;1.80;99.90
56162;DHT22;42045;52.986;6.014;2023-03-02T04:31:09;1.70;99.90
56162;DHT22;42045;52.986;6.014;2023-03-02T04:33:35;1.70;99.90
56162;DHT22;42045;52.986;6.014;2023-03-02T04:36:01;1.70;99.90
56162;DHT22;42045;52.986;6.014;2023-03-02T04:38:26;1.60;99.90
56162;DHT22;42045;52.986;6.014;2023-03-02T04:40:57;1.60;99.90
56162;DHT22;42045;52.986;6.014;2023-03-02T04:43:24;1.60;99.90
56162;DHT22;42045;52.986;6.014;2023-03-02T04:45:51;1.60;99.90
56162;DHT22;42045;52.986;6.014;2023-03-02T04:48:17;1.60;99.90
56162;DHT22;42045;52.986;6.014;2023-03-02T04:50:43;1.50;99.90
56162;DHT22;42045;52.986;6.014;2023-03-02T04:53:09;1.50;99.90
56162;DHT22;42045;52.986;6.014;2023-03-02T04:55:36;1.50;99.90
56162;DHT22;42045;52.986;6.014;2023-03-02T04:58:03;1.50;99.90
56162;DHT22;42045;52.986;6.014;2023-03-02T05:00:29;1.50;99.90
56162;DHT22;42045;52.986;6.014;2023-03-02T05:02:59;1.50;99.90
56162;DHT22;42045;52.986;6.014;2023-03-02T05:05:25;1.50;99.90
56162;DHT22;42045;52.986;6.014;2023-03-02T05:07:51;1.50;99.90
56162;DHT22;42045;52.986;6.014;2023-03-02T05:10:17;1.50;99.90
56162;DHT22;42045;52.986;6.014;2023-03-02T05:12:44;1.50;99.90
56162;DHT22;42045;52.986;6.014;2023-03-02T05:15:23;1.50;99.90
56162;DHT22;42045;52.986;6.014;2023-03-02T05:17:49;1.60;99.90
56162;DHT22;42045;52.986;6.014;2023-03-02T05:20:15;1.60;99.90
56162;DHT22;42045;52.986;6.014;2023-03-02T05:22:40;1.50;99.90
56162;DHT22;42045;52.986;6.014;2023-03-02T05:25:06;1.60;99.90
56162;DHT22;42045;52.986;6.014;2023-03-02T05:27:32;1.70;99.90
56162;DHT22;42045;52.986;6.014;2023-03-02T05:29:58;1.60;99.90
56162;DHT22;42045;52.986;6.014;2023-03-02T05:32:23;1.70;99.90
56162;DHT22;42045;52.986;6.014;2023-03-02T05:34:49;1.60;99.90
56162;DHT22;42045;52.986;6.014;2023-03-02T05:37:15;1.60;99.90
56162;DHT22;42045;52.986;6.014;2023-03-02T05:39:41;1.50;99.90
56162;DHT22;42045;52.986;6.014;2023-03-02T05:42:06;1.50;99.90
56162;DHT22;42045;52.986;6.014;2023-03-02T05:44:32;1.50;99.90
56162;DHT22;42045;52.986;6.014;2023-03-02T05:46:58;1.60;99.90
56162;DHT22;42045;52.986;6.014;2023-03-02T05:49:23;1.50;99.90
56162;DHT22;42045;52.986;6.014;2023-03-02T05:51:49;1.50;99.90
56162;DHT22;42045;52.986;6.014;2023-03-02T05:54:15;1.50;99.90
56162;DHT22;42045;52.986;6.014;2023-03-02T05:56:40;1.60;99.90
56162;DHT22;42045;52.986;6.014;2023-03-02T05:59:07;1.50;99.90
56162;DHT22;42045;52.986;6.014;2023-03-02T06:01:33;1.60;99.90
56162;DHT22;42045;52.986;6.014;2023-03-02T06:04:01;1.50;99.90
56162;DHT22;42045;52.986;6.014;2023-03-02T06:06:26;1.50;99.90
56162;DHT22;42045;52.986;6.014;2023-03-02T06:08:52;1.50;99.90
56162;DHT22;42045;52.986;6.014;2023-03-02T06:11:18;1.40;99.90
56162;DHT22;42045;52.986;6.014;2023-03-02T06:13:44;1.50;99.90
56162;DHT22;42045;52.986;6.014;2023-03-02T06:16:09;1.40;99.90
56162;DHT22;42045;52.986;6.014;2023-03-02T06:18:37;1.50;99.90
56162;DHT22;42045;52.986;6.014;2023-03-02T06:21:03;1.40;99.90
56162;DHT22;42045;52.986;6.014;2023-03-02T06:23:29;1.40;99.90
56162;DHT22;42045;52.986;6.014;2023-03-02T06:25:55;1.40;99.90
56162;DHT22;42045;52.986;6.014;2023-03-02T06:28:22;1.50;99.90
56162;DHT22;42045;52.986;6.014;2023-03-02T06:30:48;1.60;99.90
56162;DHT22;42045;52.986;6.014;2023-03-02T06:33:18;1.50;99.90
56162;DHT22;42045;52.986;6.014;2023-03-02T06:35:46;1.50;99.90
56162;DHT22;42045;52.986;6.014;2023-03-02T06:38:12;1.50;99.90
56162;DHT22;42045;52.986;6.014;2023-03-02T06:40:37;1.60;99.90
56162;DHT22;42045;52.986;6.014;2023-03-02T06:43:03;1.60;99.90
56162;DHT22;42045;52.986;6.014;2023-03-02T06:45:29;1.60;99.90
56162;DHT22;42045;52.986;6.014;2023-03-02T06:47:58;1.60;99.90
56162;DHT22;42045;52.986;6.014;2023-03-02T06:50:24;1.60;99.90
56162;DHT22;42045;52.986;6.014;2023-03-02T06:52:49;1.50;99.90
56162;DHT22;42045;52.986;6.014;2023-03-02T06:55:15;1.60;99.90
56162;DHT22;42045;52.986;6.014;2023-03-02T06:57:41;1.60;99.90
56162;DHT22;42045;52.986;6.014;2023-03-02T07:00:08;1.60;99.90
56162;DHT22;42045;52.986;6.014;2023-03-02T07:02:38;1.60;99.90
56162;DHT22;42045;52.986;6.014;2023-03-02T07:05:05;1.60;99.90
56162;DHT22;42045;52.986;6.014;2023-03-02T07:07:31;1.60;99.90
56162;DHT22;42045;52.986;6.014;2023-03-02T07:09:56;1.60;99.90
56162;DHT22;42045;52.986;6.014;2023-03-02T07:12:22;1.60;99.90
56162;DHT22;42045;52.986;6.014;2023-03-02T07:14:48;1.50;99.90
56162;DHT22;42045;52.986;6.014;2023-03-02T07:17:13;1.60;99.90
56162;DHT22;42045;52.986;6.014;2023-03-02T07:19:39;1.50;99.90
56162;DHT22;42045;52.986;6.014;2023-03-02T07:22:05;1.50;99.90
56162;DHT22;42045;52.986;6.014;2023-03-02T07:24:31;1.50;99.90
56162;DHT22;42045;52.986;6.014;2023-03-02T07:26:57;1.50;99.90
56162;DHT22;42045;52.986;6.014;2023-03-02T07:29:22;1.60;99.90
56162;DHT22;42045;52.986;6.014;2023-03-02T07:31:48;1.70;99.90
56162;DHT22;42045;52.986;6.014;2023-03-02T07:34:19;1.60;99.90
56162;DHT22;42045;52.986;6.014;2023-03-02T07:36:45;1.50;99.90
56162;DHT22;42045;52.986;6.014;2023-03-02T07:39:11;1.60;99.90
56162;DHT22;42045;52.986;6.014;2023-03-02T07:41:37;1.70;99.90
56162;DHT22;42045;52.986;6.014;2023-03-02T07:44:02;1.70;99.90
56162;DHT22;42045;52.986;6.014;2023-03-02T07:46:28;1.70;99.90
56162;DHT22;42045;52.986;6.014;2023-03-02T07:48:54;1.70;99.90
56162;DHT22;42045;52.986;6.014;2023-03-02T07:51:19;1.70;99.90
56162;DHT22;42045;52.986;6.014;2023-03-02T07:53:45;1.80;99.90
56162;DHT22;42045;52.986;6.014;2023-03-02T07:56:11;1.90;99.90
56162;DHT22;42045;52.986;6.014;2023-03-02T07:58:37;1.90;99.90
56162;DHT22;42045;52.986;6.014;2023-03-02T08:01:03;1.80;99.90
56162;DHT22;42045;52.986;6.014;2023-03-02T08:03:29;1.90;99.90
56162;DHT22;42045;52.986;6.014;2023-03-02T08:05:55;1.90;99.90
56162;DHT22;42045;52.986;6.014;2023-03-02T08:08:20;2.00;99.90
56162;DHT22;42045;52.986;6.014;2023-03-02T08:10:46;1.90;99.90
56162;DHT22;42045;52.986;6.014;2023-03-02T08:13:12;1.90;99.90
56162;DHT22;42045;52.986;6.014;2023-03-02T08:15:37;2.00;99.90
56162;DHT22;42045;52.986;6.014;2023-03-02T08:18:03;1.90;99.90
56162;DHT22;42045;52.986;6.014;2023-03-02T08:20:29;1.90;99.90
56162;DHT22;42045;52.986;6.014;2023-03-02T08:22:54;1.90;99.90
56162;DHT22;42045;52.986;6.014;2023-03-02T08:25:20;2.00;99.90
56162;DHT22;42045;52.986;6.014;2023-03-02T08:27:46;2.00;99.90
56162;DHT22;42045;52.986;6.014;2023-03-02T08:30:12;2.10;99.90
56162;DHT22;42045;52.986;6.014;2023-03-02T08:32:38;2.10;99.90
56162;DHT22;42045;52.986;6.014;2023-03-02T08:35:05;2.10;99.90
56162;DHT22;42045;52.986;6.014;2023-03-02T08:37:30;2.10;99.90
56162;DHT22;42045;52.986;6.014;2023-03-02T08:39:56;2.10;99.90
56162;DHT22;42045;52.986;6.014;2023-03-02T08:42:22;2.10;99.90
56162;DHT22;42045;52.986;6.014;2023-03-02T08:44:48;2.10;99.90
56162;DHT22;42045;52.986;6.014;2023-03-02T08:47:13;2.10;99.90
56162;DHT22;42045;52.986;6.014;2023-03-02T08:49:39;2.20;99.90
56162;DHT22;42045;52.986;6.014;2023-03-02T08:52:05;2.20;99.90
56162;DHT22;42045;52.986;6.014;2023-03-02T08:54:32;2.30;99.90
56162;DHT22;42045;52.986;6.014;2023-03-02T08:57:00;2.30;99.90
56162;DHT22;42045;52.986;6.014;2023-03-02T08:59:26;2.50;99.90
56162;DHT22;42045;52.986;6.014;2023-03-02T09:01:52;2.60;99.90
56162;DHT22;42045;52.986;6.014;2023-03-02T09:04:17;2.60;99.90
56162;DHT22;42045;52.986;6.014;2023-03-02T09:06:44;2.70;99.90
56162;DHT22;42045;52.986;6.014;2023-03-02T09:09:12;2.60;99.90
56162;DHT22;42045;52.986;6.014;2023-03-02T09:11:38;2.60;99.90
56162;DHT22;42045;52.986;6.014;2023-03-02T09:14:04;2.80;99.90
56162;DHT22;42045;52.986;6.014;2023-03-02T09:16:30;2.80;99.90
56162;DHT22;42045;52.986;6.014;2023-03-02T09:18:56;2.90;99.90
56162;DHT22;42045;52.986;6.014;2023-03-02T09:21:22;2.90;99.90
56162;DHT22;42045;52.986;6.014;2023-03-02T09:23:48;3.00;99.90
56162;DHT22;42045;52.986;6.014;2023-03-02T09:26:18;3.00;99.90
56162;DHT22;42045;52.986;6.014;2023-03-02T09:28:45;3.10;99.90
56162;DHT22;42045;52.986;6.014;2023-03-02T09:31:11;3.10;99.90
56162;DHT22;42045;52.986;6.014;2023-03-02T09:33:37;3.10;99.90
56162;DHT22;42045;52.986;6.014;2023-03-02T09:36:07;3.10;99.90
56162;DHT22;42045;52.986;6.014;2023-03-02T09:38:33;3.10;99.90
56162;DHT22;42045;52.986;6.014;2023-03-02T09:46:48;3.30;99.90
56162;DHT22;42045;52.986;6.014;2023-03-02T09:54:44;3.40;99.90
56162;DHT22;42045;52.986;6.014;2023-03-02T09:59:49;3.50;99.90
56162;DHT22;42045;52.986;6.014;2023-03-02T10:04:50;3.60;99.90
56162;DHT22;42045;52.986;6.014;2023-03-02T10:07:31;3.60;99.90
56162;DHT22;42045;52.986;6.014;2023-03-02T10:10:17;3.60;99.90
56162;DHT22;42045;52.986;6.014;2023-03-02T10:13:42;3.60;99.90
56162;DHT22;42045;52.986;6.014;2023-03-02T10:16:20;3.70;99.90
56162;DHT22;42045;52.986;6.014;2023-03-02T10:19:27;3.70;99.90
56162;DHT22;42045;52.986;6.014;2023-03-02T10:22:09;3.70;99.90
56162;DHT22;42045;52.986;6.014;2023-03-02T10:24:41;3.80;99.90
56162;DHT22;42045;52.986;6.014;2023-03-02T10:27:21;3.90;99.90
56162;DHT22;42045;52.986;6.014;2023-03-02T10:32:34;4.10;99.90
56162;DHT22;42045;52.986;6.014;2023-03-02T10:35:11;4.20;99.90
56162;DHT22;42045;52.986;6.014;2023-03-02T10:37:38;4.30;99.90
56162;DHT22;42045;52.986;6.014;2023-03-02T10:40:21;4.50;99.90
56162;DHT22;42045;52.986;6.014;2023-03-02T10:42:49;4.60;99.90
56162;DHT22;42045;52.986;6.014;2023-03-02T10:45:56;4.70;99.90
56162;DHT22;42045;52.986;6.014;2023-03-02T10:48:10;4.70;99.90
56162;DHT22;42045;52.986;6.014;2023-03-02T10:50:37;4.70;99.90
56162;DHT22;42045;52.986;6.014;2023-03-02T10:53:07;4.90;99.90
56162;DHT22;42045;52.986;6.014;2023-03-02T10:55:44;5.10;99.90
56162;DHT22;42045;52.986;6.014;2023-03-02T10:58:30;5.20;99.90
56162;DHT22;42045;52.986;6.014;2023-03-02T11:01:15;5.40;99.90
56162;DHT22;42045;52.986;6.014;2023-03-02T11:03:41;5.50;99.90
56162;DHT22;42045;52.986;6.014;2023-03-02T11:06:17;5.50;99.90
56162;DHT22;42045;52.986;6.014;2023-03-02T11:08:43;5.40;99.90
56162;DHT22;42045;52.986;6.014;2023-03-02T11:11:23;5.40;99.90
56162;DHT22;42045;52.986;6.014;2023-03-02T11:13:49;5.30;99.90
56162;DHT22;42045;52.986;6.014;2023-03-02T11:18:54;5.40;99.90
56162;DHT22;42045;52.986;6.014;2023-03-02T11:21:28;5.50;99.90
56162;DHT22;42045;52.986;6.014;2023-03-02T11:24:14;5.60;99.90
56162;DHT22;42045;52.986;6.014;2023-03-02T11:26:48;5.60;99.90
56162;DHT22;42045;52.986;6.014;2023-03-02T11:32:28;5.60;99.90
56162;DHT22;42045;52.986;6.014;2023-03-02T11:37:44;5.60;99.90
56162;DHT22;42045;52.986;6.014;2023-03-02T11:42:43;5.70;99.90
56162;DHT22;42045;52.986;6.014;2023-03-02T11:47:50;5.80;99.90
56162;DHT22;42045;52.986;6.014;2023-03-02T11:50:17;5.80;99.90
56162;DHT22;42045;52.986;6.014;2023-03-02T11:52:49;5.80;99.90
56162;DHT22;42045;52.986;6.014;2023-03-02T11:55:23;5.90;99.90
56162;DHT22;42045;52.986;6.014;2023-03-02T11:57:58;5.90;99.90
56162;DHT22;42045;52.986;6.014;2023-03-02T12:00:40;6.00;99.90
56162;DHT22;42045;52.986;6.014;2023-03-02T12:03:20;6.10;99.90
56162;DHT22;42045;52.986;6.014;2023-03-02T12:06:23;6.20;99.90
56162;DHT22;42045;52.986;6.014;2023-03-02T12:09:05;6.20;99.90
56162;DHT22;42045;52.986;6.014;2023-03-02T12:11:36;6.20;99.90
56162;DHT22;42045;52.986;6.014;2023-03-02T12:16:51;6.40;99.90
56162;DHT22;42045;52.986;6.014;2023-03-02T12:19:38;6.50;99.90
56162;DHT22;42045;52.986;6.014;2023-03-02T12:22:06;6.70;99.90
56162;DHT22;42045;52.986;6.014;2023-03-02T12:24:37;6.80;99.90
56162;DHT22;42045;52.986;6.014;2023-03-02T12:32:35;6.80;99.90
56162;DHT22;42045;52.986;6.014;2023-03-02T12:37:40;7.00;99.90
56162;DHT22;42045;52.986;6.014;2023-03-02T12:43:25;7.00;99.90
56162;DHT22;42045;52.986;6.014;2023-03-02T12:46:25;7.10;99.90
56162;DHT22;42045;52.986;6.014;2023-03-02T12:49:08;7.10;99.90
56162;DHT22;42045;52.986;6.014;2023-03-02T12:51:55;7.20;99.90
56162;DHT22;42045;52.986;6.014;2023-03-02T12:54:26;7.30;99.90
56162;DHT22;42045;52.986;6.014;2023-03-02T12:59:31;7.30;99.90
56162;DHT22;42045;52.986;6.014;2023-03-02T13:02:06;7.30;99.90
56162;DHT22;42045;52.986;6.014;2023-03-02T13:04:37;7.40;99.90
56162;DHT22;42045;52.986;6.014;2023-03-02T13:07:03;7.40;99.90
56162;DHT22;42045;52.986;6.014;2023-03-02T13:09:29;7.50;99.90
56162;DHT22;42045;52.986;6.014;2023-03-02T13:11:55;7.30;99.90
56162;DHT22;42045;52.986;6.014;2023-03-02T13:14:26;7.40;99.90
56162;DHT22;42045;52.986;6.014;2023-03-02T13:16:57;7.50;99.90
56162;DHT22;42045;52.986;6.014;2023-03-02T13:19:25;7.50;99.90
56162;DHT22;42045;52.986;6.014;2023-03-02T13:21:51;7.50;99.90
56162;DHT22;42045;52.986;6.014;2023-03-02T13:24:47;7.40;99.90
56162;DHT22;42045;52.986;6.014;2023-03-02T13:27:24;7.40;99.90
56162;DHT22;42045;52.986;6.014;2023-03-02T13:29:50;7.40;99.90
56162;DHT22;42045;52.986;6.014;2023-03-02T13:34:51;7.50;99.90
56162;DHT22;42045;52.986;6.014;2023-03-02T13:37:37;7.60;99.90
56162;DHT22;42045;52.986;6.014;2023-03-02T13:40:32;7.60;99.90
56162;DHT22;42045;52.986;6.014;2023-03-02T13:42:59;7.60;99.90
56162;DHT22;42045;52.986;6.014;2023-03-02T13:45:25;7.60;99.90
56162;DHT22;42045;52.986;6.014;2023-03-02T13:47:53;7.60;99.90
56162;DHT22;42045;52.986;6.014;2023-03-02T13:50:28;7.70;99.90
56162;DHT22;42045;52.986;6.014;2023-03-02T13:52:59;7.70;99.90
56162;DHT22;42045;52.986;6.014;2023-03-02T13:55:26;7.50;99.90
56162;DHT22;42045;52.986;6.014;2023-03-02T13:57:53;7.60;99.90
56162;DHT22;42045;52.986;6.014;2023-03-02T14:00:34;7.60;99.90
56162;DHT22;42045;52.986;6.014;2023-03-02T14:03:00;7.60;99.90
56162;DHT22;42045;52.986;6.014;2023-03-02T14:05:26;7.50;99.90
56162;DHT22;42045;52.986;6.014;2023-03-02T14:07:58;7.60;99.90
56162;DHT22;42045;52.986;6.014;2023-03-02T14:10:24;7.40;99.90
56162;DHT22;42045;52.986;6.014;2023-03-02T14:12:57;7.50;99.90
56162;DHT22;42045;52.986;6.014;2023-03-02T14:15:25;7.40;99.90
56162;DHT22;42045;52.986;6.014;2023-03-02T14:17:50;7.30;99.90
56162;DHT22;42045;52.986;6.014;2023-03-02T14:20:18;7.30;99.90
56162;DHT22;42045;52.986;6.014;2023-03-02T14:22:45;7.20;99.90
56162;DHT22;42045;52.986;6.014;2023-03-02T14:25:12;7.10;99.90
56162;DHT22;42045;52.986;6.014;2023-03-02T14:27:38;7.00;99.90
56162;DHT22;42045;52.986;6.014;2023-03-02T14:30:31;7.00;99.90
56162;DHT22;42045;52.986;6.014;2023-03-02T14:32:56;7.10;99.90
56162;DHT22;42045;52.986;6.014;2023-03-02T14:35:24;7.00;99.90
56162;DHT22;42045;52.986;6.014;2023-03-02T14:37:49;7.00;99.90
56162;DHT22;42045;52.986;6.014;2023-03-02T14:40:26;6.90;99.90
56162;DHT22;42045;52.986;6.014;2023-03-02T14:42:52;6.90;99.90
56162;DHT22;42045;52.986;6.014;2023-03-02T14:45:19;6.80;99.90
56162;DHT22;42045;52.986;6.014;2023-03-02T14:47:45;6.80;99.90
56162;DHT22;42045;52.986;6.014;2023-03-02T14:50:10;6.80;99.90
56162;DHT22;42045;52.986;6.014;2023-03-02T14:52:40;6.80;99.90
56162;DHT22;42045;52.986;6.014;2023-03-02T14:57:38;6.80;99.90
56162;DHT22;42045;52.986;6.014;2023-03-02T15:00:06;6.80;99.90
56162;DHT22;42045;52.986;6.014;2023-03-02T15:02:32;6.80;99.90
56162;DHT22;42045;52.986;6.014;2023-03-02T15:04:58;6.90;99.90
56162;DHT22;42045;52.986;6.014;2023-03-02T15:07:25;6.90;99.90
56162;DHT22;42045;52.986;6.014;2023-03-02T15:09:52;6.90;99.90
56162;DHT22;42045;52.986;6.014;2023-03-02T15:12:18;6.90;99.90
56162;DHT22;42045;52.986;6.014;2023-03-02T15:14:44;6.80;99.90
56162;DHT22;42045;52.986;6.014;2023-03-02T15:17:10;6.70;99.90
56162;DHT22;42045;52.986;6.014;2023-03-02T15:19:35;6.70;99.90
56162;DHT22;42045;52.986;6.014;2023-03-02T15:22:01;6.70;99.90
56162;DHT22;42045;52.986;6.014;2023-03-02T15:24:27;6.60;99.90
56162;DHT22;42045;52.986;6.014;2023-03-02T15:26:53;6.60;99.90
56162;DHT22;42045;52.986;6.014;2023-03-02T15:29:19;6.50;99.90
56162;DHT22;42045;52.986;6.014;2023-03-02T15:31:45;6.40;99.90
56162;DHT22;42045;52.986;6.014;2023-03-02T15:34:11;6.50;99.90
56162;DHT22;42045;52.986;6.014;2023-03-02T15:36:37;6.40;99.90
56162;DHT22;42045;52.986;6.014;2023-03-02T15:39:04;6.40;99.90
56162;DHT22;42045;52.986;6.014;2023-03-02T15:41:32;6.40;99.90
56162;DHT22;42045;52.986;6.014;2023-03-02T15:43:58;6.30;99.90
56162;DHT22;42045;52.986;6.014;2023-03-02T15:46:26;6.30;99.90
56162;DHT22;42045;52.986;6.014;2023-03-02T15:48:52;6.30;99.90
56162;DHT22;42045;52.986;6.014;2023-03-02T15:51:18;6.30;99.90
56162;DHT22;42045;52.986;6.014;2023-03-02T15:53:44;6.20;99.90
56162;DHT22;42045;52.986;6.014;2023-03-02T15:56:12;6.10;99.90
56162;DHT22;42045;52.986;6.014;2023-03-02T15:58:39;6.10;99.90
56162;DHT22;42045;52.986;6.014;2023-03-02T16:01:11;6.00;99.90
56162;DHT22;42045;52.986;6.014;2023-03-02T16:03:38;6.00;99.90
56162;DHT22;42045;52.986;6.014;2023-03-02T16:06:04;5.90;99.90
56162;DHT22;42045;52.986;6.014;2023-03-02T16:08:30;5.90;99.90
56162;DHT22;42045;52.986;6.014;2023-03-02T16:11:00;5.70;99.90
56162;DHT22;42045;52.986;6.014;2023-03-02T16:13:26;5.60;99.90
56162;DHT22;42045;52.986;6.014;2023-03-02T16:15:52;5.40;99.90
56162;DHT22;42045;52.986;6.014;2023-03-02T16:18:18;5.40;99.90
56162;DHT22;42045;52.986;6.014;2023-03-02T16:20:44;5.40;99.90
56162;DHT22;42045;52.986;6.014;2023-03-02T16:23:10;5.40;99.90
56162;DHT22;42045;52.986;6.014;2023-03-02T16:25:38;5.30;99.90
56162;DHT22;42045;52.986;6.014;2023-03-02T16:28:08;5.20;99.90
56162;DHT22;42045;52.986;6.014;2023-03-02T16:30:34;5.10;99.90
56162;DHT22;42045;52.986;6.014;2023-03-02T16:33:02;5.00;99.90
56162;DHT22;42045;52.986;6.014;2023-03-02T16:35:29;5.00;99.90
56162;DHT22;42045;52.986;6.014;2023-03-02T16:37:55;4.90;99.90
56162;DHT22;42045;52.986;6.014;2023-03-02T16:40:22;4.80;99.90
56162;DHT22;42045;52.986;6.014;2023-03-02T16:42:48;4.80;99.90
56162;DHT22;42045;52.986;6.014;2023-03-02T16:45:15;4.70;99.90
56162;DHT22;42045;52.986;6.014;2023-03-02T16:47:41;4.60;99.90
56162;DHT22;42045;52.986;6.014;2023-03-02T16:50:07;4.60;99.90
56162;DHT22;42045;52.986;6.014;2023-03-02T16:52:33;4.50;99.90
56162;DHT22;42045;52.986;6.014;2023-03-02T16:54:59;4.40;99.90